Time,TemperatureF,DewpointF,PressureIn,WindDirection,WindDirectionDegrees,WindSpeedMPH,WindSpeedGustMPH,Humidity,HourlyPrecipIn,Conditions,Clouds,dailyrainin,SolarRadiationWatts/m^2,SoftwareType,DateUTC
2013-01-17 00:30:00,37.3,28.1,29.84,WNW,288,7.0,7.0,69,0.00,,,0.00,0,Wunderground v.1.15,2013-01-17 05:30:00,
2013-01-17 00:40:00,37.2,28.3,29.84,SW,236,7.0,7.0,70,0.00,,,0.00,0,Wunderground v.1.15,2013-01-17 05:40:00,
2013-01-17 00:50:00,36.9,28.7,29.85,West,270,8.0,11.0,72,0.00,,,0.00,0,Wunderground v.1.15,2013-01-17 05:50:00,
2013-01-17 01:00:00,36.7,29.2,29.85,NW,304,10.0,10.0,74,0.00,,,0.00,0,Wunderground v.1.15,2013-01-17 06:00:00,
2013-01-17 01:10:00,36.2,29.7,29.86,West,260,8.0,12.0,77,0.00,,,0.00,0,Wunderground v.1.15,2013-01-17 06:10:00,
2013-01-17 01:20:00,36.0,29.5,29.86,SSW,211,10.0,10.0,77,0.00,,,0.00,0,Wunderground v.1.15,2013-01-17 06:20:00,
2013-01-17 01:30:00,35.8,29.9,29.87,WSW,254,7.0,7.0,79,0.00,,,0.00,0,Wunderground v.1.15,2013-01-17 06:30:00,
2013-01-17 01:40:00,35.6,29.7,29.87,WNW,288,7.0,7.0,79,0.00,,,0.00,0,Wunderground v.1.15,2013-01-17 06:40:00,
2013-01-17 01:50:00,35.6,29.7,29.88,WSW,242,9.0,9.0,79,0.00,,,0.00,0,Wunderground v.1.15,2013-01-17 06:50:00,
2013-01-17 02:00:00,35.5,29.9,29.88,West,277,9.0,12.0,80,0.00,,,0.00,0,Wunderground v.1.15,2013-01-17 07:00:00,
2013-01-17 02:10:00,35.5,30.2,29.89,West,262,8.0,8.0,81,0.00,,,0.00,0,Wunderground v.1.15,2013-01-17 07:10:00,
2013-01-17 02:20:00,35.3,30.7,29.89,WNW,298,7.0,7.0,83,0.00,,,0.00,0,Wunderground v.1.15,2013-01-17 07:20:00,
2013-01-17 02:30:00,35.0,30.7,29.90,West,273,5.0,7.0,84,0.00,,,0.00,0,Wunderground v.1.15,2013-01-17 07:30:00,
2013-01-17 02:40:00,35.0,30.7,29.90,West,264,5.0,5.0,84,0.00,,,0.00,0,Wunderground v.1.15,2013-01-17 07:40:00,
2013-01-17 02:50:00,35.0,30.7,29.90,West,280,5.0,5.0,84,0.00,,,0.00,0,Wunderground v.1.15,2013-01-17 07:50:00,
2013-01-17 03:00:00,35.1,30.8,29.90,SW,229,6.0,9.0,84,0.00,,,0.00,0,Wunderground v.1.15,2013-01-17 08:00:00,
2013-01-17 03:10:00,35.1,30.8,29.90,WSW,255,5.0,5.0,84,0.00,,,0.00,0,Wunderground v.1.15,2013-01-17 08:10:00,
2013-01-17 03:20:00,35.2,30.9,29.90,SW,231,6.0,8.0,84,0.00,,,0.00,0,Wunderground v.1.15,2013-01-17 08:20:00,
2013-01-17 03:30:00,35.2,30.9,29.91,SW,235,5.0,9.0,84,0.00,,,0.00,0,Wunderground v.1.15,2013-01-17 08:30:00,
2013-01-17 03:40:00,35.2,30.6,29.91,WNW,294,6.0,7.0,83,0.00,,,0.00,0,Wunderground v.1.15,2013-01-17 08:40:00,
2013-01-17 03:50:00,35.3,30.4,29.91,West,263,5.0,5.0,82,0.00,,,0.00,0,Wunderground v.1.15,2013-01-17 08:50:00,
2013-01-17 04:00:00,35.4,30.1,29.91,WSW,254,6.0,8.0,81,0.00,,,0.00,0,Wunderground v.1.15,2013-01-17 09:00:00,
2013-01-17 04:10:00,35.6,30.0,29.91,SSE,163,6.0,6.0,80,0.00,,,0.00,0,Wunderground v.1.15,2013-01-17 09:10:00,
2013-01-17 04:20:00,35.8,29.6,29.91,West,274,6.0,15.0,78,0.00,,,0.00,0,Wunderground v.1.15,2013-01-17 09:20:00,
2013-01-17 04:30:00,36.0,29.5,29.92,WNW,290,6.0,6.0,77,0.00,,,0.00,0,Wunderground v.1.15,2013-01-17 09:30:00,
2013-01-17 04:40:00,36.1,29.3,29.92,West,271,5.0,5.0,76,0.00,,,0.00,0,Wunderground v.1.15,2013-01-17 09:40:00,
2013-01-17 04:50:00,36.2,29.0,29.92,West,261,6.0,6.0,75,0.00,,,0.00,0,Wunderground v.1.15,2013-01-17 09:50:00,
2013-01-17 05:00:00,36.2,29.0,29.92,WNW,298,5.0,5.0,75,0.00,,,0.00,0,Wunderground v.1.15,2013-01-17 10:00:00,
2013-01-17 05:10:00,36.2,29.0,29.92,West,271,6.0,14.0,75,0.00,,,0.00,0,Wunderground v.1.15,2013-01-17 10:10:00,
2013-01-17 05:20:00,36.1,28.9,29.92,West,268,7.0,7.0,75,0.00,,,0.00,0,Wunderground v.1.15,2013-01-17 10:20:00,
2013-01-17 05:30:00,36.2,28.7,29.93,NW,319,8.0,8.0,74,0.00,,,0.00,0,Wunderground v.1.15,2013-01-17 10:30:00,
2013-01-17 05:40:00,36.2,28.7,29.93,WSW,254,8.0,8.0,74,0.00,,,0.00,0,Wunderground v.1.15,2013-01-17 10:40:00,
2013-01-17 05:50:00,36.1,28.6,29.93,West,279,6.0,6.0,74,0.00,,,0.00,0,Wunderground v.1.15,2013-01-17 10:50:00,
2013-01-17 06:00:00,36.0,28.8,29.94,West,261,7.0,7.0,75,0.00,,,0.00,0,Wunderground v.1.15,2013-01-17 11:00:00,
2013-01-17 06:10:00,36.0,28.8,29.94,West,261,6.0,8.0,75,0.00,,,0.00,0,Wunderground v.1.15,2013-01-17 11:10:00,
2013-01-17 06:20:00,35.7,29.8,29.95,NW,309,10.0,10.0,79,0.00,,,0.00,0,Wunderground v.1.15,2013-01-17 11:20:00,
2013-01-17 06:30:00,34.9,29.7,29.96,West,276,10.0,10.0,81,0.00,,,0.00,0,Wunderground v.1.15,2013-01-17 11:30:00,
2013-01-17 06:40:00,34.6,29.4,29.97,NW,313,9.0,13.0,81,0.00,,,0.00,0,Wunderground v.1.15,2013-01-17 11:40:00,
2013-01-17 06:50:00,34.5,29.3,29.97,NW,322,9.0,13.0,81,0.00,,,0.00,0,Wunderground v.1.15,2013-01-17 11:50:00,
2013-01-17 07:00:00,34.4,28.9,29.99,NW,315,8.0,8.0,80,0.00,,,0.00,0,Wunderground v.1.15,2013-01-17 12:00:00,
2013-01-17 07:10:00,34.1,28.3,29.99,West,277,11.0,14.0,79,0.00,,,0.00,0,Wunderground v.1.15,2013-01-17 12:10:00,
2013-01-17 07:20:00,33.6,27.8,30.00,NNW,335,11.0,12.0,79,0.00,,,0.00,0,Wunderground v.1.15,2013-01-17 12:20:00,
2013-01-17 07:30:00,32.1,24.7,30.03,NNW,327,12.0,12.0,74,0.00,,,0.00,0,Wunderground v.1.15,2013-01-17 12:30:00,
2013-01-17 07:40:00,30.8,23.5,30.03,NW,321,11.0,13.0,74,0.00,,,0.00,0,Wunderground v.1.15,2013-01-17 12:40:00,
2013-01-17 07:50:00,30.2,22.9,30.04,NW,326,11.0,11.0,74,0.00,,,0.00,0,Wunderground v.1.15,2013-01-17 12:50:00,
2013-01-17 08:00:00,29.9,22.6,30.06,NW,306,8.0,12.0,74,0.00,,,0.00,0,Wunderground v.1.15,2013-01-17 13:00:00,
2013-01-17 08:10:00,29.4,21.5,30.06,NW,325,12.0,12.0,72,0.00,,,0.00,9,Wunderground v.1.15,2013-01-17 13:10:00,
2013-01-17 08:20:00,29.0,21.4,30.07,NW,325,9.0,9.0,73,0.00,,,0.00,12,Wunderground v.1.15,2013-01-17 13:20:00,
2013-01-17 08:30:00,28.9,20.7,30.08,NW,309,10.0,10.0,71,0.00,,,0.00,9,Wunderground v.1.15,2013-01-17 13:30:00,
2013-01-17 08:40:00,28.6,20.7,30.09,NW,309,9.0,11.0,72,0.00,,,0.00,12,Wunderground v.1.15,2013-01-17 13:40:00,
2013-01-17 08:50:00,28.1,19.6,30.11,NW,326,8.0,8.0,70,0.00,,,0.00,18,Wunderground v.1.15,2013-01-17 13:50:00,
2013-01-17 09:00:00,27.3,17.8,30.12,NNW,329,10.0,11.0,67,0.00,,,0.00,19,Wunderground v.1.15,2013-01-17 14:00:00,
2013-01-17 09:10:00,26.7,16.9,30.12,NW,317,11.0,11.0,66,0.00,,,0.00,49,Wunderground v.1.15,2013-01-17 14:10:00,
2013-01-17 09:20:00,26.4,16.9,30.13,NW,324,9.0,9.0,67,0.00,,,0.00,39,Wunderground v.1.15,2013-01-17 14:20:00,
2013-01-17 09:30:00,26.2,16.7,30.13,NW,325,9.0,9.0,67,0.00,,,0.00,62,Wunderground v.1.15,2013-01-17 14:30:00,
2013-01-17 09:40:00,26.1,17.0,30.14,NNW,346,9.0,9.0,68,0.00,,,0.00,76,Wunderground v.1.15,2013-01-17 14:40:00,
2013-01-17 09:50:00,26.2,17.1,30.14,North,5,9.0,11.0,68,0.00,,,0.00,65,Wunderground v.1.15,2013-01-17 14:50:00,
2013-01-17 10:00:00,26.1,17.0,30.15,NW,306,10.0,10.0,68,0.00,,,0.00,72,Wunderground v.1.15,2013-01-17 15:00:00,
2013-01-17 10:10:00,26.1,17.0,30.14,NNW,333,10.0,10.0,68,0.00,,,0.00,63,Wunderground v.1.15,2013-01-17 15:10:00,
2013-01-17 10:20:00,26.0,15.5,30.15,NNW,348,10.0,10.0,64,0.00,,,0.00,67,Wunderground v.1.15,2013-01-17 15:20:00,
2013-01-17 10:30:00,25.9,15.4,30.16,WNW,300,11.0,11.0,64,0.00,,,0.00,107,Wunderground v.1.15,2013-01-17 15:30:00,
2013-01-17 10:40:00,25.9,15.7,30.17,North,355,10.0,12.0,65,0.00,,,0.00,111,Wunderground v.1.15,2013-01-17 15:40:00,
2013-01-17 10:50:00,25.8,15.6,30.18,NNW,334,8.0,8.0,65,0.00,,,0.00,93,Wunderground v.1.15,2013-01-17 15:50:00,
2013-01-17 11:00:00,25.4,15.3,30.18,NW,309,7.0,9.0,65,0.00,,,0.00,88,Wunderground v.1.15,2013-01-17 16:00:00,
2013-01-17 11:10:00,25.1,15.3,30.18,NW,321,8.0,8.0,66,0.00,,,0.00,88,Wunderground v.1.15,2013-01-17 16:10:00,
2013-01-17 11:20:00,24.8,15.4,30.18,NW,325,9.0,9.0,67,0.00,,,0.00,95,Wunderground v.1.15,2013-01-17 16:20:00,
2013-01-17 11:30:00,24.5,15.1,30.17,NW,320,9.0,13.0,67,0.00,,,0.00,105,Wunderground v.1.15,2013-01-17 16:30:00,
2013-01-17 11:40:00,24.4,15.0,30.18,North,360,8.0,8.0,67,0.00,,,0.00,120,Wunderground v.1.15,2013-01-17 16:40:00,
2013-01-17 11:50:00,24.7,15.6,30.18,WNW,296,5.0,7.0,68,0.00,,,0.00,130,Wunderground v.1.15,2013-01-17 16:50:00,
2013-01-17 12:00:00,24.7,15.3,30.18,NW,306,7.0,12.0,67,0.00,,,0.00,109,Wunderground v.1.15,2013-01-17 17:00:00,
2013-01-17 12:10:00,24.4,14.7,30.17,NW,325,9.0,9.0,66,0.00,,,0.00,109,Wunderground v.1.15,2013-01-17 17:10:00,
2013-01-17 12:20:00,24.3,14.9,30.18,NW,325,9.0,11.0,67,0.00,,,0.00,107,Wunderground v.1.15,2013-01-17 17:20:00,
2013-01-17 12:30:00,24.3,14.9,30.17,NW,315,7.0,7.0,67,0.00,,,0.00,100,Wunderground v.1.15,2013-01-17 17:30:00,
2013-01-17 12:40:00,24.2,15.2,30.17,NNW,344,8.0,8.0,68,0.00,,,0.00,97,Wunderground v.1.15,2013-01-17 17:40:00,
2013-01-17 12:50:00,24.0,16.3,30.17,NNE,24,8.0,8.0,72,0.00,,,0.00,105,Wunderground v.1.15,2013-01-17 17:50:00,
2013-01-17 13:00:00,24.1,16.1,30.16,NW,325,6.0,6.0,71,0.00,,,0.00,77,Wunderground v.1.15,2013-01-17 18:00:00,
2013-01-17 13:10:00,23.9,15.2,30.15,NNE,13,6.0,8.0,69,0.00,,,0.00,86,Wunderground v.1.15,2013-01-17 18:10:00,
2013-01-17 13:20:00,23.8,15.4,30.16,NNW,328,5.0,6.0,70,0.00,,,0.00,86,Wunderground v.1.15,2013-01-17 18:20:00,
2013-01-17 13:30:00,23.8,15.1,30.16,NW,324,6.0,6.0,69,0.00,,,0.00,77,Wunderground v.1.15,2013-01-17 18:30:00,
2013-01-17 13:40:00,23.7,15.0,30.15,NNW,339,5.0,5.0,69,0.00,,,0.00,76,Wunderground v.1.15,2013-01-17 18:40:00,
2013-01-17 13:50:00,23.6,14.2,30.15,NNW,342,5.0,5.0,67,0.00,,,0.00,77,Wunderground v.1.15,2013-01-17 18:50:00,
2013-01-17 14:00:00,23.5,14.1,30.16,NNE,23,5.0,6.0,67,0.00,,,0.00,63,Wunderground v.1.15,2013-01-17 19:00:00,
2013-01-17 14:10:00,23.5,14.1,30.16,NW,314,5.0,5.0,67,0.00,,,0.00,49,Wunderground v.1.15,2013-01-17 19:10:00,
2013-01-17 14:20:00,23.4,13.4,30.15,NW,324,6.0,6.0,65,0.00,,,0.00,58,Wunderground v.1.15,2013-01-17 19:20:00,
2013-01-17 14:30:00,23.3,13.3,30.16,North,355,6.0,9.0,65,0.00,,,0.00,58,Wunderground v.1.15,2013-01-17 19:30:00,
2013-01-17 14:40:00,23.2,13.2,30.16,NNW,333,7.0,7.0,65,0.00,,,0.00,49,Wunderground v.1.15,2013-01-17 19:40:00,
2013-01-17 14:50:00,23.1,13.1,30.16,NNW,327,6.0,6.0,65,0.00,,,0.00,53,Wunderground v.1.15,2013-01-17 19:50:00,
2013-01-17 15:00:00,23.0,13.3,30.16,NW,309,5.0,5.0,66,0.00,,,0.00,54,Wunderground v.1.15,2013-01-17 20:00:00,
2013-01-17 15:10:00,23.0,13.3,30.16,North,355,5.0,5.0,66,0.00,,,0.00,62,Wunderground v.1.15,2013-01-17 20:10:00,
2013-01-17 15:20:00,22.9,13.6,30.15,NNW,348,6.0,10.0,67,0.00,,,0.00,51,Wunderground v.1.15,2013-01-17 20:20:00,
2013-01-17 15:30:00,22.7,14.1,30.15,North,355,5.0,5.0,69,0.00,,,0.00,35,Wunderground v.1.15,2013-01-17 20:30:00,
2013-01-17 15:40:00,22.7,14.1,30.15,NNW,333,6.0,6.0,69,0.00,,,0.00,28,Wunderground v.1.15,2013-01-17 20:40:00,
2013-01-17 15:50:00,22.6,14.0,30.15,North,9,4.0,5.0,69,0.00,,,0.00,26,Wunderground v.1.15,2013-01-17 20:50:00,
2013-01-17 16:00:00,22.5,13.9,30.16,North,350,4.0,4.0,69,0.00,,,0.00,21,Wunderground v.1.15,2013-01-17 21:00:00,
2013-01-17 16:10:00,22.4,13.8,30.16,North,355,4.0,8.0,69,0.00,,,0.00,16,Wunderground v.1.15,2013-01-17 21:10:00,
2013-01-17 16:20:00,22.4,14.1,30.17,West,269,4.0,4.0,70,0.00,,,0.00,12,Wunderground v.1.15,2013-01-17 21:20:00,
2013-01-17 16:30:00,22.2,13.9,30.17,NW,306,4.0,5.0,70,0.00,,,0.00,9,Wunderground v.1.15,2013-01-17 21:30:00,
2013-01-17 16:40:00,22.3,14.0,30.17,NNW,338,3.0,3.0,70,0.00,,,0.00,5,Wunderground v.1.15,2013-01-17 21:40:00,
2013-01-17 16:50:00,22.2,13.6,30.17,WNW,298,3.0,4.0,69,0.00,,,0.00,0,Wunderground v.1.15,2013-01-17 21:50:00,
2013-01-17 17:00:00,22.2,14.2,30.17,North,5,4.0,5.0,71,0.00,,,0.00,0,Wunderground v.1.15,2013-01-17 22:00:00,
2013-01-17 17:10:00,22.1,14.1,30.17,NNW,335,3.0,3.0,71,0.00,,,0.00,0,Wunderground v.1.15,2013-01-17 22:10:00,
2013-01-17 17:20:00,22.0,14.3,30.18,NNW,331,3.0,6.0,72,0.00,,,0.00,0,Wunderground v.1.15,2013-01-17 22:20:00,
2013-01-17 17:30:00,21.9,14.9,30.18,NW,323,5.0,5.0,74,0.00,,,0.00,0,Wunderground v.1.15,2013-01-17 22:30:00,
2013-01-17 17:40:00,21.8,14.8,30.18,NNW,330,2.0,2.0,74,0.00,,,0.00,0,Wunderground v.1.15,2013-01-17 22:40:00,
2013-01-17 17:50:00,21.8,15.4,30.17,NW,307,2.0,3.0,76,0.00,,,0.00,0,Wunderground v.1.15,2013-01-17 22:50:00,
2013-01-17 18:00:00,21.7,15.3,30.17,NNW,331,1.0,2.0,76,0.00,,,0.00,0,Wunderground v.1.15,2013-01-17 23:00:00,
2013-01-17 18:10:00,21.7,15.9,30.18,NW,308,1.0,1.0,78,0.00,,,0.00,0,Wunderground v.1.15,2013-01-17 23:10:00,
2013-01-17 18:20:00,21.7,15.9,30.18,West,269,0.0,0.0,78,0.00,,,0.00,0,Wunderground v.1.15,2013-01-17 23:20:00,
2013-01-17 18:30:00,21.7,16.2,30.18,SSW,205,1.0,2.0,79,0.00,,,0.00,0,Wunderground v.1.15,2013-01-17 23:30:00,
2013-01-17 18:40:00,21.7,15.9,30.18,WSW,243,1.0,1.0,78,0.00,,,0.00,0,Wunderground v.1.15,2013-01-17 23:40:00,
2013-01-17 18:50:00,21.7,15.9,30.19,SSW,213,0.0,0.0,78,0.00,,,0.00,0,Wunderground v.1.15,2013-01-17 23:50:00,
2013-01-17 19:00:00,21.7,15.9,30.19,West,265,0.0,1.0,78,0.00,,,0.00,0,Wunderground v.1.15,2013-01-18 00:00:00,
2013-01-17 19:10:00,21.7,15.9,30.18,NW,321,1.0,1.0,78,0.00,,,0.00,0,Wunderground v.1.15,2013-01-18 00:10:00,
2013-01-17 19:20:00,21.7,15.9,30.20,NW,321,0.0,0.0,78,0.00,,,0.00,0,Wunderground v.1.15,2013-01-18 00:20:00,
2013-01-17 19:30:00,21.8,16.0,30.18,NW,321,0.0,0.0,78,0.00,,,0.00,0,Wunderground v.1.15,2013-01-18 00:30:00,
2013-01-17 19:40:00,21.7,15.9,30.18,NW,321,0.0,0.0,78,0.00,,,0.00,0,Wunderground v.1.15,2013-01-18 00:40:00,
2013-01-17 20:00:00,21.7,16.2,30.18,NW,315,1.0,1.0,79,0.00,,,0.00,0,Wunderground v.1.15,2013-01-18 01:00:00,
2013-01-17 20:10:00,21.8,16.6,30.18,NW,321,0.0,2.0,80,0.00,,,0.00,0,Wunderground v.1.15,2013-01-18 01:10:00,
2013-01-17 20:20:00,21.7,16.5,30.18,NW,311,1.0,1.0,80,0.00,,,0.00,0,Wunderground v.1.15,2013-01-18 01:20:00,
2013-01-17 20:30:00,21.6,17.0,30.18,NNW,340,1.0,1.0,82,0.00,,,0.00,0,Wunderground v.1.15,2013-01-18 01:30:00,
2013-01-17 20:40:00,21.6,17.5,30.18,North,5,1.0,1.0,84,0.00,,,0.00,0,Wunderground v.1.15,2013-01-18 01:40:00,
2013-01-17 20:50:00,21.4,17.9,30.17,NNW,337,1.0,1.0,86,0.00,,,0.00,0,Wunderground v.1.15,2013-01-18 01:50:00,
2013-01-17 21:00:00,21.2,17.9,30.18,NW,310,1.0,1.0,87,0.00,,,0.00,0,Wunderground v.1.15,2013-01-18 02:00:00,
2013-01-17 21:10:00,21.2,18.2,30.18,NNW,346,1.0,1.0,88,0.00,,,0.00,0,Wunderground v.1.15,2013-01-18 02:10:00,
2013-01-17 21:20:00,21.1,18.4,30.18,NNW,340,1.0,1.0,89,0.00,,,0.00,0,Wunderground v.1.15,2013-01-18 02:20:00,
2013-01-17 21:30:00,21.1,18.4,30.18,NNW,331,1.0,2.0,89,0.00,,,0.00,0,Wunderground v.1.15,2013-01-18 02:30:00,
2013-01-17 21:40:00,20.9,18.2,30.17,NNE,19,4.0,5.0,89,0.00,,,0.00,0,Wunderground v.1.15,2013-01-18 02:40:00,
2013-01-17 21:50:00,20.4,17.4,30.17,North,5,4.0,4.0,88,0.00,,,0.00,0,Wunderground v.1.15,2013-01-18 02:50:00,
2013-01-17 22:00:00,20.0,16.8,30.17,NW,315,4.0,5.0,87,0.00,,,0.00,0,Wunderground v.1.15,2013-01-18 03:00:00,
2013-01-17 22:10:00,19.8,16.6,30.17,North,5,5.0,8.0,87,0.00,,,0.00,0,Wunderground v.1.15,2013-01-18 03:10:00,
2013-01-17 22:20:00,19.6,16.1,30.16,North,10,5.0,8.0,86,0.00,,,0.00,0,Wunderground v.1.15,2013-01-18 03:20:00,
2013-01-17 22:40:00,19.4,16.2,30.13,NE,46,4.0,7.0,87,0.00,,,0.00,0,Wunderground v.1.15,2013-01-18 03:40:00,
2013-01-17 22:50:00,19.3,16.1,30.15,NNW,348,6.0,6.0,87,0.00,,,0.00,0,Wunderground v.1.15,2013-01-18 03:50:00,
2013-01-17 23:00:00,19.1,15.6,30.15,NNE,32,4.0,4.0,86,0.00,,,0.00,0,Wunderground v.1.15,2013-01-18 04:00:00,
2013-01-17 23:10:00,19.0,15.0,30.16,NNE,26,5.0,7.0,84,0.00,,,0.00,0,Wunderground v.1.15,2013-01-18 04:10:00,
2013-01-17 23:20:00,18.9,14.3,30.16,NNE,21,8.0,11.0,82,0.00,,,0.00,0,Wunderground v.1.15,2013-01-18 04:20:00,
2013-01-17 23:30:00,18.7,14.1,30.16,NNE,31,8.0,8.0,82,0.00,,,0.00,0,Wunderground v.1.15,2013-01-18 04:30:00,
2013-01-17 23:40:00,18.6,13.7,30.17,NNE,15,6.0,6.0,81,0.00,,,0.00,0,Wunderground v.1.15,2013-01-18 04:40:00,
2013-01-17 23:50:00,18.6,13.7,30.16,North,5,5.0,5.0,81,0.00,,,0.00,0,Wunderground v.1.15,2013-01-18 04:50:00,